createdAt,value
2023-02-12T00:01:26.565Z,24.35
2023-02-12T00:03:54.059Z,23.90
2023-02-12T00:06:22.013Z,26.83
2023-02-12T00:08:54.632Z,23.80
2023-02-12T00:11:28.381Z,25.80
2023-02-12T00:13:56.822Z,26.92
2023-02-12T00:16:28.174Z,26.55
2023-02-12T00:18:58.421Z,28.08
2023-02-12T00:21:25.968Z,27.05
2023-02-12T00:23:53.383Z,28.33
2023-02-12T00:26:22.365Z,30.33
2023-02-12T00:28:51.942Z,27.10
2023-02-12T00:31:24.454Z,40.60
2023-02-12T00:33:52.373Z,41.30
2023-02-12T00:36:24.115Z,47.00
2023-02-12T00:38:54.251Z,39.13
2023-02-12T00:41:22.852Z,40.13
2023-02-12T00:43:50.922Z,33.10
2023-02-12T00:46:18.192Z,30.00
2023-02-12T00:48:45.683Z,28.90
2023-02-12T00:51:13.654Z,28.20
2023-02-12T00:53:41.109Z,27.30
2023-02-12T00:56:08.404Z,28.77
2023-02-12T00:58:35.817Z,32.67
2023-02-12T01:01:03.122Z,30.83
2023-02-12T01:03:30.338Z,24.60
2023-02-12T01:05:59.120Z,26.95
2023-02-12T01:08:26.575Z,23.98
2023-02-12T01:11:00.899Z,22.92
2023-02-12T01:13:31.069Z,22.50
2023-02-12T01:16:15.342Z,19.85
2023-02-12T01:18:43.238Z,22.90
2023-02-12T01:21:17.444Z,26.50
2023-02-12T01:23:45.762Z,30.33
2023-02-12T01:26:14.849Z,28.90
2023-02-12T01:28:44.604Z,27.88
2023-02-12T01:33:42.523Z,31.67
2023-02-12T01:38:38.352Z,22.98
2023-02-12T01:41:20.422Z,23.05
2023-02-12T01:44:05.644Z,22.27
2023-02-12T01:46:32.913Z,20.60
2023-02-12T01:49:02.399Z,23.55
2023-02-12T01:51:31.285Z,22.73
2023-02-12T01:54:05.144Z,28.33
2023-02-12T01:56:32.684Z,29.27
2023-02-12T01:59:00.039Z,30.92
2023-02-12T02:01:32.002Z,27.63
2023-02-12T02:04:09.770Z,24.38
2023-02-12T02:07:00.627Z,22.77
2023-02-12T02:09:30.488Z,23.83
2023-02-12T02:14:44.795Z,25.98
2023-02-12T02:18:03.358Z,25.27
2023-02-12T02:21:01.718Z,23.20
2023-02-12T02:24:18.533Z,24.48
2023-02-12T02:27:10.994Z,26.45
2023-02-12T02:30:44.741Z,29.60
2023-02-12T02:34:01.583Z,29.60
2023-02-12T02:37:00.788Z,28.65
2023-02-12T02:40:02.072Z,28.00
2023-02-12T02:42:49.388Z,27.42
2023-02-12T02:45:39.999Z,28.95
2023-02-12T02:48:31.454Z,29.60
2023-02-12T02:51:10.610Z,30.38
2023-02-12T02:53:51.046Z,31.90
2023-02-12T02:56:22.378Z,24.70
2023-02-12T02:58:58.771Z,28.33
2023-02-12T03:01:35.316Z,32.88
2023-02-12T03:04:12.193Z,32.88
2023-02-12T03:06:57.212Z,30.88
2023-02-12T03:09:29.719Z,31.67
2023-02-12T03:12:03.946Z,30.30
2023-02-12T03:14:37.893Z,27.02
2023-02-12T03:17:21.560Z,27.17
2023-02-12T03:20:05.710Z,23.98
2023-02-12T03:22:36.980Z,25.77
2023-02-12T03:25:14.465Z,28.88
2023-02-12T03:28:01.251Z,26.55
2023-02-12T03:30:44.926Z,25.20
2023-02-12T03:33:44.190Z,26.75
2023-02-12T03:36:40.990Z,26.58
2023-02-12T03:39:16.193Z,28.73
2023-02-12T03:42:00.736Z,29.50
2023-02-12T03:44:55.788Z,32.25
2023-02-12T03:47:43.504Z,32.70
2023-02-12T03:50:30.603Z,32.20
2023-02-12T03:52:58.012Z,31.98
2023-02-12T03:55:25.688Z,30.15
2023-02-12T03:58:00.340Z,29.83
2023-02-12T04:00:27.951Z,27.63
2023-02-12T04:02:56.226Z,31.60
2023-02-12T04:05:27.949Z,31.90
2023-02-12T04:07:57.922Z,31.65
2023-02-12T04:10:40.683Z,28.40
2023-02-12T04:13:28.800Z,31.23
2023-02-12T04:16:20.043Z,31.05
2023-02-12T04:18:48.997Z,28.63
2023-02-12T04:21:29.660Z,30.90
2023-02-12T04:24:18.980Z,37.67
2023-02-12T04:26:56.931Z,35.55
2023-02-12T04:29:47.878Z,33.22
2023-02-12T04:32:34.637Z,30.48
2023-02-12T04:35:10.467Z,30.10
2023-02-12T04:38:09.455Z,33.00
2023-02-12T04:40:40.299Z,34.13
2023-02-12T04:43:08.186Z,30.40
2023-02-12T04:45:36.887Z,30.60
2023-02-12T04:48:06.024Z,23.23
2023-02-12T04:50:42.881Z,23.90
2023-02-12T04:53:10.810Z,24.00
2023-02-12T04:55:38.324Z,27.80
2023-02-12T04:58:06.484Z,28.92
2023-02-12T05:00:33.793Z,29.52
2023-02-12T05:03:01.219Z,40.17
2023-02-12T05:05:28.500Z,35.78
2023-02-12T05:07:55.727Z,42.90
2023-02-12T05:10:23.084Z,26.30
2023-02-12T05:12:53.201Z,27.40
2023-02-12T05:15:21.256Z,25.42
2023-02-12T05:17:48.503Z,24.25
2023-02-12T05:20:15.867Z,27.73
2023-02-12T05:22:43.047Z,37.20
2023-02-12T05:25:11.136Z,43.85
2023-02-12T05:27:38.390Z,42.45
2023-02-12T05:30:06.845Z,42.33
2023-02-12T05:32:34.110Z,40.10
2023-02-12T05:35:01.462Z,40.33
2023-02-12T05:37:30.921Z,38.67
2023-02-12T05:39:58.097Z,49.70
2023-02-12T05:42:25.336Z,52.65
2023-02-12T05:44:52.611Z,51.60
2023-02-12T05:47:19.869Z,48.03
2023-02-12T05:49:47.039Z,47.22
2023-02-12T05:52:14.286Z,46.75
2023-02-12T05:54:41.613Z,47.55
2023-02-12T05:57:08.815Z,42.58
2023-02-12T05:59:36.042Z,46.38
2023-02-12T06:02:03.330Z,42.38
2023-02-12T06:04:30.644Z,44.97
2023-02-12T06:06:59.562Z,47.85
2023-02-12T06:09:27.541Z,42.37
2023-02-12T06:11:54.727Z,38.40
2023-02-12T06:14:21.927Z,36.05
2023-02-12T06:16:51.326Z,32.45
2023-02-12T06:19:19.807Z,36.60
2023-02-12T06:21:47.192Z,36.63
2023-02-12T06:24:16.573Z,42.10
2023-02-12T06:26:44.236Z,49.53
2023-02-12T06:29:12.744Z,61.15
2023-02-12T06:31:40.434Z,64.57
2023-02-12T06:34:10.752Z,66.28
2023-02-12T06:36:41.616Z,52.78
2023-02-12T06:39:10.260Z,52.17
2023-02-12T06:41:38.040Z,55.03
2023-02-12T06:44:06.040Z,52.83
2023-02-12T06:46:33.473Z,52.42
2023-02-12T06:49:01.153Z,46.97
2023-02-12T06:51:30.708Z,38.33
2023-02-12T06:53:58.591Z,34.15
2023-02-12T06:56:26.647Z,32.22
2023-02-12T06:58:58.241Z,33.00
2023-02-12T07:01:28.279Z,39.22
2023-02-12T07:03:59.381Z,39.50
2023-02-12T07:06:28.913Z,42.90
2023-02-12T07:08:56.699Z,44.40
2023-02-12T07:11:27.252Z,46.38
2023-02-12T07:13:54.765Z,47.38
2023-02-12T07:16:22.704Z,46.97
2023-02-12T07:18:50.510Z,45.50
2023-02-12T07:21:18.175Z,47.13
2023-02-12T07:23:51.752Z,51.67
2023-02-12T07:26:20.790Z,49.33
2023-02-12T07:28:49.758Z,51.88
2023-02-12T07:31:22.842Z,51.92
2023-02-12T07:33:55.023Z,48.20
2023-02-12T07:36:23.954Z,51.30
2023-02-12T07:38:51.746Z,53.33
2023-02-12T07:41:23.016Z,49.78
2023-02-12T07:44:03.837Z,50.80
2023-02-12T07:46:41.677Z,47.33
2023-02-12T07:49:17.506Z,49.38
2023-02-12T07:51:45.767Z,46.65
2023-02-12T07:54:13.918Z,41.45
2023-02-12T07:56:43.314Z,44.70
2023-02-12T07:59:13.502Z,49.25
2023-02-12T08:01:47.884Z,46.67
2023-02-12T08:04:19.632Z,47.83
2023-02-12T08:06:50.043Z,51.30
2023-02-12T08:09:24.836Z,50.13
2023-02-12T08:11:52.206Z,49.78
2023-02-12T08:14:21.677Z,52.60
2023-02-12T08:16:50.722Z,52.33
2023-02-12T08:19:22.511Z,57.88
2023-02-12T08:21:54.194Z,47.25
2023-02-12T08:24:21.964Z,39.53
2023-02-12T08:26:49.831Z,36.85
2023-02-12T08:29:21.265Z,31.17
2023-02-12T08:31:50.604Z,32.80
2023-02-12T08:34:24.468Z,28.20
2023-02-12T08:36:54.122Z,26.20
2023-02-12T08:41:50.343Z,27.63
2023-02-12T08:44:18.060Z,29.65
2023-02-12T08:46:54.962Z,28.63
2023-02-12T08:49:29.292Z,33.20
2023-02-12T08:51:59.044Z,28.55
2023-02-12T08:56:58.498Z,23.35
2023-02-12T08:59:26.540Z,24.05
2023-02-12T09:01:54.458Z,31.58
2023-02-12T09:04:26.144Z,28.70
2023-02-12T09:06:54.682Z,26.75
2023-02-12T09:09:22.137Z,20.40
2023-02-12T09:11:49.907Z,30.63
2023-02-12T09:14:23.288Z,29.27
2023-02-12T09:16:52.484Z,31.13
2023-02-12T09:19:20.040Z,30.40
2023-02-12T09:21:56.130Z,28.80
2023-02-12T09:24:27.246Z,29.30
2023-02-12T09:26:54.477Z,20.67
2023-02-12T09:29:21.614Z,22.67
2023-02-12T09:31:49.169Z,18.58
2023-02-12T09:34:16.641Z,16.90
2023-02-12T09:36:43.810Z,19.10
2023-02-12T09:39:11.039Z,19.98
2023-02-12T09:41:55.594Z,18.30
2023-02-12T09:44:47.749Z,18.05
2023-02-12T09:47:17.060Z,20.30
2023-02-12T09:50:16.445Z,20.23
2023-02-12T09:52:44.197Z,22.08
2023-02-12T09:55:16.373Z,18.50
2023-02-12T09:57:44.498Z,26.70
2023-02-12T10:00:28.207Z,23.08
2023-02-12T10:02:55.749Z,37.75
2023-02-12T10:05:51.326Z,31.15
2023-02-12T10:09:07.108Z,39.95
2023-02-12T10:12:12.202Z,20.58
2023-02-12T10:15:20.888Z,22.65
2023-02-12T10:18:03.384Z,19.30
2023-02-12T10:21:16.270Z,20.55
2023-02-12T10:23:55.340Z,19.38
2023-02-12T10:26:35.292Z,22.60
2023-02-12T10:29:33.647Z,36.55
2023-02-12T10:32:12.872Z,22.88
2023-02-12T10:34:42.112Z,21.60
2023-02-12T10:37:56.710Z,20.00
2023-02-12T10:40:34.801Z,20.38
2023-02-12T10:43:02.433Z,18.77
2023-02-12T10:45:35.031Z,19.60
2023-02-12T10:48:29.657Z,17.92
2023-02-12T10:51:08.964Z,18.10
2023-02-12T10:53:42.699Z,20.58
2023-02-12T10:56:17.427Z,19.55
2023-02-12T10:58:56.092Z,21.10
2023-02-12T11:01:33.386Z,19.38
2023-02-12T11:04:28.093Z,24.05
2023-02-12T11:07:06.704Z,23.38
2023-02-12T11:09:47.736Z,21.27
2023-02-12T11:12:40.329Z,20.15
2023-02-12T11:15:14.986Z,19.85
2023-02-12T11:17:59.002Z,21.45
2023-02-12T11:20:51.220Z,21.63
2023-02-12T11:23:42.958Z,23.05
2023-02-12T11:26:19.333Z,22.58
2023-02-12T11:28:58.675Z,22.95
2023-02-12T11:31:32.039Z,23.10
2023-02-12T11:34:18.217Z,21.42
2023-02-12T11:36:55.187Z,25.05
2023-02-12T11:39:33.905Z,24.33
2023-02-12T11:42:14.189Z,22.80
2023-02-12T11:44:48.549Z,23.70
2023-02-12T11:47:30.604Z,21.10
2023-02-12T11:50:29.710Z,24.23
2023-02-12T11:53:07.486Z,23.75
2023-02-12T11:55:39.432Z,22.88
2023-02-12T11:58:12.769Z,24.05
2023-02-12T12:01:04.205Z,22.65
2023-02-12T12:03:51.497Z,22.30
2023-02-12T12:06:52.950Z,23.33
2023-02-12T12:09:58.619Z,25.90
2023-02-12T12:12:46.374Z,19.50
2023-02-12T12:15:54.419Z,24.83
2023-02-12T12:19:05.120Z,22.17
2023-02-12T12:22:13.529Z,22.10
2023-02-12T12:24:51.690Z,22.48
2023-02-12T12:28:03.224Z,25.20
2023-02-12T12:30:54.621Z,28.17
2023-02-12T12:33:21.740Z,30.45
2023-02-12T12:36:14.183Z,22.38
2023-02-12T12:39:06.607Z,24.05
2023-02-12T12:42:18.529Z,24.00
2023-02-12T12:44:51.382Z,22.38
2023-02-12T12:48:09.369Z,21.33
2023-02-12T12:51:00.260Z,20.77
2023-02-12T12:53:48.755Z,21.00
2023-02-12T12:56:56.275Z,32.00
2023-02-12T12:59:57.099Z,22.73
2023-02-12T13:02:40.384Z,21.65
2023-02-12T13:05:19.148Z,23.75
2023-02-12T13:08:45.404Z,24.60
2023-02-12T13:11:34.669Z,24.35
2023-02-12T13:14:31.035Z,23.35
2023-02-12T13:17:19.217Z,22.17
2023-02-12T13:20:20.064Z,21.52
2023-02-12T13:22:59.805Z,19.83
2023-02-12T13:25:39.142Z,26.42
2023-02-12T13:28:42.640Z,27.35
2023-02-12T13:31:32.490Z,21.00
2023-02-12T13:34:04.659Z,20.95
2023-02-12T13:36:35.488Z,23.30
2023-02-12T13:39:42.830Z,26.48
2023-02-12T13:42:38.827Z,23.52
2023-02-12T13:45:50.106Z,31.67
2023-02-12T13:48:42.103Z,23.15
2023-02-12T13:51:43.895Z,22.50
2023-02-12T13:54:53.019Z,27.20
2023-02-12T13:57:21.401Z,31.88
2023-02-12T13:59:53.917Z,33.60
2023-02-12T14:02:25.668Z,31.85
2023-02-12T14:04:52.830Z,31.83
2023-02-12T14:07:21.621Z,27.88
2023-02-12T14:09:52.026Z,29.85
2023-02-12T14:12:25.160Z,30.80
2023-02-12T14:15:36.064Z,33.20
2023-02-12T14:18:32.372Z,32.75
2023-02-12T14:21:11.739Z,30.15
2023-02-12T14:23:50.201Z,31.25
2023-02-12T14:26:23.063Z,31.05
2023-02-12T14:29:03.822Z,33.85
2023-02-12T14:31:37.952Z,25.45
2023-02-12T14:34:05.073Z,25.80
2023-02-12T14:36:32.263Z,28.55
2023-02-12T14:39:39.652Z,26.63
2023-02-12T14:42:09.485Z,29.45
2023-02-12T14:47:35.815Z,34.88
2023-02-12T14:50:14.892Z,33.53
2023-02-12T14:52:49.749Z,34.03
2023-02-12T14:55:33.794Z,31.75
2023-02-12T14:58:05.929Z,31.90
2023-02-12T15:00:48.016Z,35.53
2023-02-12T15:03:24.573Z,33.42
2023-02-12T15:06:24.549Z,34.63
2023-02-12T15:09:02.218Z,33.67
2023-02-12T15:11:44.409Z,45.53
2023-02-12T15:14:26.550Z,37.83
2023-02-12T15:17:20.297Z,35.22
2023-02-12T15:19:52.898Z,33.92
2023-02-12T15:22:23.062Z,32.97
2023-02-12T15:24:50.265Z,36.17
2023-02-12T15:27:19.890Z,38.42
2023-02-12T15:29:52.766Z,41.22
2023-02-12T15:32:29.239Z,39.90
2023-02-12T15:34:56.865Z,48.70
2023-02-12T15:37:30.792Z,48.65
2023-02-12T15:40:03.188Z,46.05
2023-02-12T15:42:38.577Z,38.50
2023-02-12T15:45:14.854Z,55.63
2023-02-12T15:47:45.252Z,39.72
2023-02-12T15:50:15.572Z,39.05
2023-02-12T15:52:45.962Z,43.55
2023-02-12T15:55:21.942Z,45.63
2023-02-12T15:58:01.360Z,44.08
2023-02-12T16:00:47.206Z,53.55
2023-02-12T16:03:22.598Z,46.67
2023-02-12T16:05:51.092Z,47.15
2023-02-12T16:08:22.033Z,46.88
2023-02-12T16:10:53.049Z,53.55
2023-02-12T16:13:34.035Z,60.03
2023-02-12T16:16:13.407Z,59.28
2023-02-12T16:18:42.766Z,58.53
2023-02-12T16:21:22.865Z,52.70
2023-02-12T16:23:51.440Z,42.58
2023-02-12T16:26:24.797Z,42.53
2023-02-12T16:28:56.938Z,44.90
2023-02-12T16:31:26.791Z,45.92
2023-02-12T16:33:58.738Z,43.58
2023-02-12T16:36:29.972Z,49.88
2023-02-12T16:39:04.889Z,45.45
2023-02-12T16:41:55.267Z,55.60
2023-02-12T16:44:30.896Z,49.35
2023-02-12T16:47:00.696Z,55.90
2023-02-12T16:49:28.414Z,63.55
2023-02-12T16:52:37.246Z,65.60
2023-02-12T16:55:12.670Z,60.27
2023-02-12T16:57:40.514Z,66.75
2023-02-12T17:00:16.656Z,73.72
2023-02-12T17:02:44.137Z,92.22
2023-02-12T17:05:13.474Z,73.82
2023-02-12T17:07:40.727Z,76.07
2023-02-12T17:10:12.886Z,73.47
2023-02-12T17:12:52.348Z,73.30
2023-02-12T17:15:40.844Z,72.65
2023-02-12T17:18:10.855Z,57.60
2023-02-12T17:20:38.569Z,59.65
2023-02-12T17:23:06.569Z,59.90
2023-02-12T17:25:35.675Z,61.40
2023-02-12T17:28:03.083Z,43.47
2023-02-12T17:30:31.774Z,61.25
2023-02-12T17:32:59.228Z,52.58
2023-02-12T17:35:26.950Z,59.97
2023-02-12T17:37:54.160Z,94.55
2023-02-12T17:40:21.622Z,86.72
2023-02-12T17:42:48.903Z,72.32
2023-02-12T17:45:16.693Z,91.45
2023-02-12T17:47:43.957Z,66.05
2023-02-12T17:50:14.608Z,74.60
2023-02-12T17:52:41.941Z,71.93
2023-02-12T17:55:11.854Z,71.40
2023-02-12T17:57:40.496Z,80.20
2023-02-12T18:00:10.576Z,84.55
2023-02-12T18:05:05.560Z,79.55
2023-02-12T18:07:34.523Z,98.82
2023-02-12T18:10:02.391Z,98.78
2023-02-12T18:12:31.791Z,97.32
2023-02-12T18:15:01.554Z,81.60
2023-02-12T18:19:56.289Z,116.25
2023-02-12T18:22:23.914Z,126.18
2023-02-12T18:24:51.236Z,146.95
2023-02-12T18:27:18.633Z,146.02
2023-02-12T18:29:45.844Z,86.13
2023-02-12T18:32:15.427Z,77.90
2023-02-12T18:34:43.724Z,74.32
2023-02-12T18:37:13.050Z,76.10
2023-02-12T18:39:40.515Z,94.25
2023-02-12T18:42:08.410Z,88.38
2023-02-12T18:44:36.352Z,92.57
2023-02-12T18:47:03.723Z,93.75
2023-02-12T18:49:33.671Z,100.18
2023-02-12T18:52:01.489Z,99.22
2023-02-12T18:54:28.864Z,103.25
2023-02-12T18:56:56.175Z,92.82
2023-02-12T18:59:25.724Z,89.28
2023-02-12T19:01:55.052Z,94.25
2023-02-12T19:04:25.923Z,99.05
2023-02-12T19:06:54.623Z,99.28
2023-02-12T19:09:25.096Z,91.30
2023-02-12T19:11:56.267Z,105.32
2023-02-12T19:14:25.557Z,95.85
2023-02-12T19:16:52.959Z,107.50
2023-02-12T19:19:21.582Z,88.78
2023-02-12T19:21:49.070Z,66.70
2023-02-12T19:24:17.318Z,92.88
2023-02-12T19:26:44.780Z,96.57
2023-02-12T19:29:13.029Z,125.25
2023-02-12T19:31:44.740Z,127.00
2023-02-12T19:34:19.720Z,112.93
2023-02-12T19:36:48.528Z,104.93
2023-02-12T19:39:19.929Z,78.00
2023-02-12T19:41:48.756Z,56.72
2023-02-12T19:44:20.097Z,53.10
2023-02-12T19:46:48.831Z,50.88
2023-02-12T19:49:21.039Z,58.15
2023-02-12T19:51:49.357Z,63.60
2023-02-12T19:54:18.578Z,65.70
2023-02-12T19:56:46.402Z,72.20
2023-02-12T19:59:17.442Z,71.68
2023-02-12T20:01:45.610Z,62.88
2023-02-12T20:04:15.581Z,70.68
2023-02-12T20:06:45.342Z,67.32
2023-02-12T20:11:40.404Z,59.95
2023-02-12T20:14:12.204Z,72.45
2023-02-12T20:16:43.030Z,61.47
2023-02-12T20:19:23.171Z,61.95
2023-02-12T20:21:55.381Z,69.88
2023-02-12T20:24:28.953Z,67.93
2023-02-12T20:26:58.581Z,52.13
2023-02-12T20:29:26.260Z,50.05
2023-02-12T20:31:53.558Z,50.00
2023-02-12T20:34:21.713Z,63.72
2023-02-12T20:36:49.054Z,72.80
2023-02-12T20:39:20.312Z,79.50
2023-02-12T20:41:48.423Z,91.68
2023-02-12T20:44:19.558Z,73.68
2023-02-12T20:46:50.120Z,65.15
2023-02-12T20:49:19.914Z,62.25
2023-02-12T20:51:49.350Z,65.82
2023-02-12T20:54:16.566Z,64.40
2023-02-12T20:56:43.884Z,66.07
2023-02-12T20:59:11.895Z,77.70
2023-02-12T21:01:41.238Z,85.93
2023-02-12T21:04:13.602Z,82.93
2023-02-12T21:06:41.434Z,82.35
2023-02-12T21:09:13.530Z,83.65
2023-02-12T21:11:44.437Z,71.95
2023-02-12T21:14:21.740Z,76.85
2023-02-12T21:16:50.834Z,70.25
2023-02-12T21:19:18.948Z,68.25
2023-02-12T21:21:46.432Z,75.35
2023-02-12T21:24:23.786Z,71.38
2023-02-12T21:26:53.173Z,73.50
2023-02-12T21:29:21.214Z,65.28
2023-02-12T21:31:50.589Z,61.25
2023-02-12T21:34:22.154Z,48.88
2023-02-12T21:36:53.242Z,39.45
2023-02-12T21:39:26.697Z,43.30
2023-02-12T21:41:59.356Z,43.17
2023-02-12T21:44:26.879Z,47.75
2023-02-12T21:46:55.385Z,51.25
2023-02-12T21:49:27.019Z,52.92
2023-02-12T21:51:58.777Z,59.08
2023-02-12T21:54:26.785Z,56.80
2023-02-12T21:56:54.670Z,52.00
2023-02-12T21:59:24.105Z,66.43
2023-02-12T22:01:58.603Z,67.28
2023-02-12T22:04:26.832Z,67.13
2023-02-12T22:06:54.271Z,66.80
2023-02-12T22:09:23.258Z,58.00
2023-02-12T22:11:51.540Z,53.08
2023-02-12T22:14:19.388Z,51.08
2023-02-12T22:16:47.079Z,55.05
2023-02-12T22:19:14.926Z,60.53
2023-02-12T22:21:43.869Z,56.88
2023-02-12T22:24:14.701Z,62.00
2023-02-12T22:26:43.088Z,51.08
2023-02-12T22:29:13.260Z,57.90
2023-02-12T22:31:43.340Z,60.30
2023-02-12T22:34:15.210Z,53.58
2023-02-12T22:36:43.751Z,62.63
2023-02-12T22:39:12.415Z,64.43
2023-02-12T22:41:41.388Z,61.47
2023-02-12T22:44:12.244Z,66.70
2023-02-12T22:46:41.298Z,64.07
2023-02-12T22:49:09.413Z,65.68
2023-02-12T22:51:38.918Z,59.20
2023-02-12T22:54:10.680Z,69.15
2023-02-12T22:56:37.784Z,62.20
2023-02-12T22:59:04.888Z,68.15
2023-02-12T23:01:32.421Z,68.85
2023-02-12T23:03:59.705Z,64.05
2023-02-12T23:06:30.158Z,65.25
2023-02-12T23:09:01.234Z,66.03
2023-02-12T23:11:30.537Z,67.25
2023-02-12T23:13:57.939Z,63.05
2023-02-12T23:16:25.800Z,72.10
2023-02-12T23:18:58.481Z,74.80
2023-02-12T23:21:27.633Z,65.10
2023-02-12T23:23:55.259Z,82.10
2023-02-12T23:26:22.841Z,72.03
2023-02-12T23:28:50.336Z,66.18
2023-02-12T23:31:17.591Z,63.58
2023-02-12T23:33:44.875Z,64.72
2023-02-12T23:36:12.047Z,67.68
2023-02-12T23:38:39.212Z,54.08
2023-02-12T23:41:06.544Z,51.60
2023-02-12T23:43:33.812Z,57.50
2023-02-12T23:46:01.193Z,60.25
2023-02-12T23:48:28.486Z,57.13
2023-02-12T23:50:56.129Z,68.35
2023-02-12T23:53:23.429Z,72.25
2023-02-12T23:55:50.757Z,69.05
2023-02-12T23:58:18.466Z,65.40
